createdAt,value
2023-02-27T00:01:15.713Z,-2.87
2023-02-27T00:06:20.650Z,-3.12
2023-02-27T00:11:27.901Z,-2.97
2023-02-27T00:16:36.957Z,-2.75
2023-02-27T00:21:44.649Z,-2.58
2023-02-27T00:26:49.745Z,-2.75
2023-02-27T00:32:00.052Z,-2.62
2023-02-27T00:37:05.860Z,-3.00
2023-02-27T00:42:11.252Z,-3.08
2023-02-27T00:47:19.579Z,-3.27
2023-02-27T00:52:24.626Z,-3.41
2023-02-27T00:57:31.620Z,-3.72
2023-02-27T01:02:39.328Z,-3.69
2023-02-27T01:07:46.003Z,-3.42
2023-02-27T01:12:52.386Z,-3.54
2023-02-27T01:18:00.136Z,-3.50
2023-02-27T01:23:07.252Z,-3.48
2023-02-27T01:28:17.932Z,-3.66
2023-02-27T01:33:25.494Z,-3.45
2023-02-27T01:38:30.387Z,-3.52
2023-02-27T01:43:35.475Z,-3.52
2023-02-27T01:48:45.327Z,-3.74
2023-02-27T01:53:53.874Z,-3.75
2023-02-27T01:59:03.386Z,-3.81
2023-02-27T02:04:18.719Z,-3.80
2023-02-27T02:09:25.400Z,-3.64
2023-02-27T02:14:30.578Z,-3.93
2023-02-27T02:20:10.758Z,-4.12
2023-02-27T02:25:57.031Z,-3.98
2023-02-27T02:31:38.877Z,-3.84
2023-02-27T02:37:26.423Z,-4.21
2023-02-27T02:42:39.980Z,-4.54
2023-02-27T02:47:57.503Z,-4.57
2023-02-27T02:53:09.273Z,-4.49
2023-02-27T02:58:24.605Z,-4.63
2023-02-27T03:03:35.375Z,-4.58
2023-02-27T03:08:47.668Z,-4.51
2023-02-27T03:14:00.071Z,-4.46
2023-02-27T03:19:13.387Z,-4.42
2023-02-27T03:24:26.435Z,-4.40
2023-02-27T03:29:43.703Z,-4.46
2023-02-27T03:34:51.814Z,-4.27
2023-02-27T03:40:04.978Z,-4.07
2023-02-27T03:45:21.625Z,-4.06
2023-02-27T03:50:29.956Z,-4.12
2023-02-27T03:55:42.049Z,-3.93
2023-02-27T04:00:50.210Z,-3.80
2023-02-27T04:05:56.618Z,-3.74
2023-02-27T04:11:33.720Z,-3.36
2023-02-27T04:17:03.637Z,-3.44
2023-02-27T04:22:23.242Z,-3.63
2023-02-27T04:27:37.458Z,-3.52
2023-02-27T04:32:52.590Z,-3.63
2023-02-27T04:38:04.321Z,-3.36
2023-02-27T04:43:15.424Z,-3.59
2023-02-27T04:48:27.467Z,-3.48
2023-02-27T04:53:41.416Z,-3.68
2023-02-27T04:58:52.792Z,-3.33
2023-02-27T05:04:03.747Z,-3.04
2023-02-27T05:09:16.776Z,-2.74
2023-02-27T05:14:25.865Z,-2.55
2023-02-27T05:19:34.117Z,-2.66
2023-02-27T05:24:50.514Z,-2.64
2023-02-27T05:29:59.355Z,-2.58
2023-02-27T05:35:14.201Z,-2.85
2023-02-27T05:40:23.120Z,-2.99
2023-02-27T05:45:35.088Z,-2.99
2023-02-27T05:50:44.571Z,-2.81
2023-02-27T05:55:52.188Z,-3.08
2023-02-27T06:01:03.758Z,-3.32
2023-02-27T06:06:16.669Z,-3.31
2023-02-27T06:11:23.443Z,-2.76
2023-02-27T06:16:28.796Z,-3.15
2023-02-27T06:21:38.628Z,-3.83
2023-02-27T06:26:43.862Z,-3.55
2023-02-27T06:31:48.882Z,-3.84
2023-02-27T06:36:56.890Z,-3.39
2023-02-27T06:42:06.170Z,-3.29
2023-02-27T06:47:12.961Z,-3.27
2023-02-27T06:52:21.442Z,-3.20
2023-02-27T06:57:26.389Z,-3.05
2023-02-27T07:02:31.507Z,-2.98
2023-02-27T07:07:43.393Z,-2.79
2023-02-27T07:12:50.265Z,-2.50
2023-02-27T07:17:59.558Z,-2.38
2023-02-27T07:23:08.886Z,-2.45
2023-02-27T07:28:14.078Z,-2.31
2023-02-27T07:33:19.216Z,-1.26
2023-02-27T07:38:33.351Z,-1.13
2023-02-27T07:43:38.721Z,-1.12
2023-02-27T07:48:44.372Z,-0.42
2023-02-27T07:53:51.970Z,0.01
2023-02-27T07:59:03.432Z,-0.33
2023-02-27T08:04:08.765Z,-0.61
2023-02-27T08:09:16.643Z,-0.59
2023-02-27T08:14:22.685Z,0.04
2023-02-27T08:19:27.965Z,0.21
2023-02-27T08:24:44.830Z,0.26
2023-02-27T08:29:49.846Z,1.92
2023-02-27T08:34:56.341Z,1.68
2023-02-27T08:40:15.383Z,1.64
2023-02-27T08:45:22.147Z,3.93
2023-02-27T08:50:29.804Z,3.32
2023-02-27T08:55:38.170Z,3.64
2023-02-27T09:00:44.289Z,4.26
2023-02-27T09:05:51.954Z,4.14
2023-02-27T09:11:03.171Z,3.22
2023-02-27T09:16:20.829Z,3.73
2023-02-27T09:21:27.879Z,2.87
2023-02-27T09:26:45.176Z,3.30
2023-02-27T09:37:28.276Z,2.96
2023-02-27T09:42:45.489Z,3.31
2023-02-27T09:47:54.231Z,3.17
2023-02-27T09:52:59.491Z,3.57
2023-02-27T09:58:14.010Z,3.30
2023-02-27T10:03:37.427Z,3.15
2023-02-27T10:08:51.961Z,2.23
2023-02-27T10:14:08.645Z,2.18
2023-02-27T10:19:20.101Z,2.54
2023-02-27T10:24:29.839Z,2.75
2023-02-27T10:29:39.928Z,2.46
2023-02-27T10:34:48.395Z,2.63
2023-02-27T10:40:00.378Z,1.96
2023-02-27T10:45:16.510Z,2.31
2023-02-27T10:50:52.187Z,2.51
2023-02-27T10:56:05.932Z,3.31
2023-02-27T11:01:18.667Z,3.79
2023-02-27T11:06:36.425Z,2.89
2023-02-27T11:11:41.477Z,3.74
2023-02-27T11:16:55.844Z,3.56
2023-02-27T11:22:08.376Z,2.72
2023-02-27T11:27:26.659Z,4.08
2023-02-27T11:32:44.291Z,3.76
2023-02-27T11:37:52.789Z,3.69
2023-02-27T11:43:01.298Z,4.35
2023-02-27T11:48:25.656Z,4.84
2023-02-27T11:54:09.589Z,4.42
2023-02-27T11:59:28.918Z,4.23
2023-02-27T12:04:46.213Z,4.68
2023-02-27T12:10:01.993Z,4.92
2023-02-27T12:15:20.377Z,4.36
2023-02-27T12:20:38.979Z,4.78
2023-02-27T12:25:54.926Z,4.25
2023-02-27T12:31:10.380Z,4.11
2023-02-27T12:36:18.650Z,3.53
2023-02-27T12:41:42.388Z,3.53
2023-02-27T12:46:55.536Z,3.08
2023-02-27T12:52:17.254Z,3.18
2023-02-27T12:57:34.605Z,3.86
2023-02-27T13:03:03.260Z,3.84
2023-02-27T13:08:38.475Z,4.34
2023-02-27T13:13:50.750Z,3.83
2023-02-27T13:19:01.364Z,4.28
2023-02-27T13:24:24.149Z,4.69
2023-02-27T13:29:37.590Z,3.97
2023-02-27T13:34:46.828Z,4.31
2023-02-27T13:40:38.881Z,4.54
2023-02-27T13:46:03.896Z,3.81
2023-02-27T13:51:13.946Z,4.21
2023-02-27T13:56:26.349Z,4.74
2023-02-27T14:01:37.065Z,4.66
2023-02-27T14:06:48.282Z,4.41
2023-02-27T14:12:00.003Z,3.27
2023-02-27T14:17:08.402Z,3.17
2023-02-27T14:22:44.957Z,3.43
2023-02-27T14:28:07.620Z,3.21
2023-02-27T14:33:39.476Z,2.63
2023-02-27T14:38:45.698Z,2.60
2023-02-27T14:43:58.258Z,2.62
2023-02-27T14:49:05.660Z,2.41
2023-02-27T14:54:17.185Z,2.10
2023-02-27T14:59:30.105Z,2.36
2023-02-27T15:04:36.416Z,1.86
2023-02-27T15:09:44.911Z,1.60
2023-02-27T15:14:54.995Z,1.49
2023-02-27T15:20:02.455Z,1.69
2023-02-27T15:25:08.531Z,1.80
2023-02-27T15:30:27.327Z,1.99
2023-02-27T15:35:39.378Z,2.21
2023-02-27T15:40:44.743Z,1.98
2023-02-27T15:45:55.199Z,2.13
2023-02-27T15:51:08.828Z,2.14
2023-02-27T15:56:17.345Z,2.03
2023-02-27T16:01:27.599Z,1.90
2023-02-27T16:06:37.099Z,1.95
2023-02-27T16:11:42.380Z,1.83
2023-02-27T16:16:57.221Z,1.78
2023-02-27T16:22:14.867Z,1.84
2023-02-27T16:27:22.695Z,1.94
2023-02-27T16:32:33.715Z,1.89
2023-02-27T16:37:43.227Z,1.74
2023-02-27T16:42:50.200Z,1.70
2023-02-27T16:47:59.820Z,1.71
2023-02-27T16:53:04.753Z,1.55
2023-02-27T16:58:16.803Z,1.65
2023-02-27T17:03:25.777Z,1.48
2023-02-27T17:08:30.744Z,1.47
2023-02-27T17:13:38.999Z,1.49
2023-02-27T17:18:48.964Z,1.49
2023-02-27T17:23:54.020Z,1.51
2023-02-27T17:28:58.902Z,1.36
2023-02-27T17:34:08.957Z,1.45
2023-02-27T17:39:18.434Z,1.54
2023-02-27T17:44:24.123Z,1.36
2023-02-27T17:49:31.643Z,1.20
2023-02-27T17:54:36.709Z,1.28
2023-02-27T17:59:43.464Z,1.16
2023-02-27T18:04:53.443Z,1.23
2023-02-27T18:09:58.438Z,1.09
2023-02-27T18:15:06.905Z,1.15
2023-02-27T18:20:19.921Z,1.02
2023-02-27T18:25:28.531Z,0.99
2023-02-27T18:30:37.230Z,1.10
2023-02-27T18:35:45.338Z,1.02
2023-02-27T18:40:50.327Z,0.98
2023-02-27T18:45:56.117Z,1.01
2023-02-27T18:51:12.440Z,1.01
2023-02-27T18:56:22.989Z,0.88
2023-02-27T19:01:29.943Z,0.83
2023-02-27T19:06:41.049Z,0.98
2023-02-27T19:11:47.303Z,0.84
2023-02-27T19:16:52.438Z,0.67
2023-02-27T19:22:00.477Z,0.83
2023-02-27T19:27:05.727Z,0.39
2023-02-27T19:32:11.140Z,0.68
2023-02-27T19:37:19.118Z,0.66
2023-02-27T19:42:27.401Z,0.58
2023-02-27T19:47:32.911Z,0.45
2023-02-27T19:52:41.060Z,0.23
2023-02-27T19:57:48.528Z,0.24
2023-02-27T20:02:53.771Z,0.35
2023-02-27T20:08:06.831Z,0.27
2023-02-27T20:13:14.722Z,0.08
2023-02-27T20:18:20.341Z,0.23
2023-02-27T20:23:28.394Z,0.23
2023-02-27T20:28:33.492Z,0.25
2023-02-27T20:33:38.952Z,0.19
2023-02-27T20:38:47.088Z,0.13
2023-02-27T20:43:52.848Z,0.20
2023-02-27T20:49:00.463Z,0.26
2023-02-27T20:54:10.451Z,0.21
2023-02-27T20:59:17.465Z,0.28
2023-02-27T21:04:25.853Z,0.16
2023-02-27T21:09:33.714Z,0.21
2023-02-27T21:14:39.421Z,0.23
2023-02-27T21:19:44.702Z,0.20
2023-02-27T21:24:53.812Z,0.16
2023-02-27T21:30:00.591Z,0.13
2023-02-27T21:35:05.625Z,0.25
2023-02-27T21:40:15.181Z,0.21
2023-02-27T21:45:20.146Z,-0.07
2023-02-27T21:50:25.082Z,-0.02
2023-02-27T21:55:32.961Z,-0.04
2023-02-27T22:00:37.852Z,-0.21
2023-02-27T22:05:43.604Z,-0.14
2023-02-27T22:10:51.403Z,0.04
2023-02-27T22:15:56.930Z,0.05
2023-02-27T22:21:02.169Z,0.11
2023-02-27T22:26:11.444Z,0.12
2023-02-27T22:31:18.673Z,0.09
2023-02-27T22:36:29.202Z,0.29
2023-02-27T22:41:38.592Z,0.18
2023-02-27T22:46:45.473Z,0.19
2023-02-27T22:51:52.110Z,0.15
2023-02-27T22:56:59.912Z,0.21
2023-02-27T23:02:06.305Z,-0.06
2023-02-27T23:07:11.258Z,-0.07
2023-02-27T23:12:18.804Z,0.12
2023-02-27T23:17:23.983Z,-0.10
2023-02-27T23:22:33.639Z,0.11
2023-02-27T23:27:41.164Z,0.18
2023-02-27T23:32:46.239Z,0.19
2023-02-27T23:37:51.183Z,0.15
2023-02-27T23:43:12.547Z,0.17
2023-02-27T23:48:17.625Z,0.28
2023-02-27T23:53:22.572Z,0.25
2023-02-27T23:58:30.085Z,0.13
